Saint Paul, MN (55133)

10:32 PM CST on December 04, 2016 (GMT -0600)
West Side Saint Paul | | Change Station

Elev 984 ft 44.92 °N, 93.10 °W | Updated 2 minutes ago

Overcast
Overcast
34.2 °F
Feels Like 32 °F
N
3.2
Wind Variable Wind from SSW
Gusts 6.3 mph

Today
High -- | Low -- °F
--% Chance of Precip.
Yesterday
High -- | Low -- °F
Precip. -- in
Pressure 29.79 in
Visibility 10.0 miles
Clouds Overcast 3000 ft
Windchill 32 °F
Dew Point 31 °F
Humidity 88%
Rainfall 0.20 in
Snow Depth Not available.
7:34 AM 4:31 PM
Waxing Crescent, 28% visible
SPECI KSTP 050417Z AUTO 24006KT 10SM OVC030 02/M01 A2979 RMK AO2 T00221011
Pressure 29.79 in
Visibility 10.0 miles
Clouds Overcast 3000 ft
Windchill 32 °F
Dew Point 31 °F
Humidity 88%
Rainfall 0.20 in
Snow Depth Not available.
7:34 AM 4:31 PM
Waxing Crescent, 28% visible
SPECI KSTP 050417Z AUTO 24006KT 10SM OVC030 02/M01 A2979 RMK AO2 T00221011

10-Day Weather Forecast

Almanac

Astronomy

Dec. 04, 2016 Rise Set
Actual Time
Civil Twilight
Nautical Twilight
Astronomical Twilight
Moon
Length of Visible Light
Length of Day
Tomorrow will be .
, % of the Moon is Illuminated

Today's Extremes

State Highs State Lows

Community

WunderPhotos

Upload Photos

1,955,763 photos uploaded!

WunderBlog® & News

Nearby

Air Quality

  Air Quality AQ Index Pollutant
Not available.

Snow Depth

Station Depth Elevation

Earthquake Activity

City Distance Mag. Time & Date
Minimum magnitude displayed is 2.5.

Coastal Water Temperatures

Place Temperature

Stations

Nearby Weather Stations

Station Location Temp. Windchill Dew Point Humidity Wind Precip. Elev Updated Type
                   

Watches & Warnings

There are currently no watches in effect.